Time;durP1;ratioP1;P1;durP2;ratioP2;P2;SDS_P1;SDS_P2;PMS_P1;PMS_P2;Temp;Humidity;BMP_temperature;BMP_pressure;BME280_temperature;BME280_humidity;BME280_pressure;Samples;Min_cycle;Max_cycle;Signal;HPM_P1;HPM_P2
2023/05/24 00:00:43;;;;;;;;;;;18.90;61.70;;;;;;5083492;28;19951;-79
2023/05/24 00:03:10;;;;;;;;;;;18.90;61.60;;;;;;5079881;28;19950;-79
2023/05/24 00:05:39;;;;;;;;;;;18.90;61.90;;;;;;5076847;28;19932;-79
2023/05/24 00:08:06;;;;;;;;;;;18.90;61.80;;;;;;5080367;28;19989;-77
2023/05/24 00:10:32;;;;;;;;;;;18.80;62.00;;;;;;5080153;28;19928;-78
2023/05/24 00:12:59;;;;;;;;;;;18.80;62.00;;;;;;5084199;28;19927;-78
2023/05/24 00:15:25;;;;;;;;;;;18.80;62.10;;;;;;5085421;28;19937;-78
2023/05/24 00:17:53;;;;;;;;;;;18.80;62.30;;;;;;5084704;28;19935;-77
2023/05/24 00:20:20;;;;;;;;;;;18.80;62.20;;;;;;5078611;28;19928;-79
2023/05/24 00:22:46;;;;;;;;;;;18.80;62.20;;;;;;5078278;28;19939;-78
2023/05/24 00:25:13;;;;;;;;;;;18.80;62.20;;;;;;5076675;28;19963;-78
2023/05/24 00:27:40;;;;;;;;;;;18.70;62.20;;;;;;5083680;28;19928;-79
2023/05/24 00:30:07;;;;;;;;;;;18.70;62.30;;;;;;5077956;28;19925;-78
2023/05/24 00:32:33;;;;;;;;;;;18.70;62.50;;;;;;5082371;28;19931;-79
2023/05/24 00:35:02;;;;;;;;;;;18.70;62.40;;;;;;5077580;28;19932;-79
2023/05/24 00:37:29;;;;;;;;;;;18.60;62.40;;;;;;5077612;28;19928;-78
2023/05/24 00:39:55;;;;;;;;;;;18.60;62.70;;;;;;5082969;28;19927;-78
2023/05/24 00:42:22;;;;;;;;;;;18.60;62.50;;;;;;5078423;28;19936;-80
2023/05/24 00:44:49;;;;;;;;;;;18.60;62.50;;;;;;5078945;28;19928;-78
2023/05/24 00:47:15;;;;;;;;;;;18.50;62.50;;;;;;5081087;28;19928;-78
2023/05/24 00:49:42;;;;;;;;;;;18.50;62.30;;;;;;5077590;28;19932;-78
2023/05/24 00:52:10;;;;;;;;;;;18.40;62.60;;;;;;5075732;28;19928;-79
2023/05/24 00:54:37;;;;;;;;;;;18.40;62.60;;;;;;5076533;28;20002;-78
2023/05/24 00:57:03;;;;;;;;;;;18.40;62.50;;;;;;5077972;28;19925;-80
2023/05/24 00:59:31;;;;;;;;;;;18.40;62.50;;;;;;5079991;28;19932;-79
2023/05/24 01:01:57;;;;;;;;;;;18.30;62.20;;;;;;5082135;28;19924;-79
2023/05/24 01:04:24;;;;;;;;;;;18.30;62.20;;;;;;5080885;28;19939;-78
2023/05/24 01:07:06;;;;;;;;;;;18.30;62.30;;;;;;5074177;28;20403;-78
2023/05/24 01:09:39;;;;;;;;;;;18.30;62.30;;;;;;5073758;28;20018;-78
2023/05/24 01:12:15;;;;;;;;;;;18.20;62.30;;;;;;5079568;28;20029;-79
2023/05/24 01:14:49;;;;;;;;;;;18.20;62.40;;;;;;5079773;28;19939;-78
2023/05/24 01:17:19;;;;;;;;;;;18.20;62.40;;;;;;5080794;28;20603;-78
2023/05/24 01:19:50;;;;;;;;;;;18.10;62.30;;;;;;5077408;28;19974;-78
2023/05/24 01:22:38;;;;;;;;;;;18.10;62.30;;;;;;5076118;28;19928;-79
2023/05/24 01:25:09;;;;;;;;;;;18.10;62.60;;;;;;5061827;28;19924;-79
2023/05/24 01:27:37;;;;;;;;;;;18.10;62.70;;;;;;5081110;28;19987;-78
2023/05/24 01:30:04;;;;;;;;;;;18.00;62.50;;;;;;5073520;28;19928;-79
2023/05/24 01:32:30;;;;;;;;;;;18.10;62.70;;;;;;5074819;28;19932;-78
2023/05/24 01:34:57;;;;;;;;;;;18.00;62.70;;;;;;5073051;28;20354;-79
2023/05/24 01:37:23;;;;;;;;;;;18.00;62.70;;;;;;5074852;28;19939;-78
2023/05/24 01:39:50;;;;;;;;;;;17.90;62.70;;;;;;5080634;28;19935;-79
2023/05/24 01:42:27;;;;;;;;;;;17.90;63.50;;;;;;5072567;28;20306;-79
2023/05/24 01:45:00;;;;;;;;;;;17.90;62.80;;;;;;5078354;28;19950;-78
2023/05/24 01:47:30;;;;;;;;;;;17.90;62.80;;;;;;5080423;28;19939;-78
2023/05/24 01:49:59;;;;;;;;;;;17.80;62.90;;;;;;5080246;28;19963;-78
2023/05/24 01:52:27;;;;;;;;;;;17.80;62.90;;;;;;5086015;28;19967;-78
2023/05/24 01:54:56;;;;;;;;;;;17.80;63.00;;;;;;5081427;28;19931;-78
2023/05/24 01:57:23;;;;;;;;;;;17.80;63.10;;;;;;5081378;28;19932;-78
2023/05/24 01:59:50;;;;;;;;;;;17.80;63.10;;;;;;5078679;28;19931;-79
2023/05/24 02:02:18;;;;;;;;;;;17.80;63.20;;;;;;5083459;28;20318;-78
2023/05/24 02:04:45;;;;;;;;;;;17.70;63.30;;;;;;5081450;28;19935;-79
2023/05/24 02:07:12;;;;;;;;;;;17.70;63.30;;;;;;5076724;28;20389;-78
2023/05/24 02:09:38;;;;;;;;;;;17.70;63.30;;;;;;5083489;28;19935;-78
2023/05/24 02:12:05;;;;;;;;;;;17.70;63.50;;;;;;5082658;28;19928;-78
2023/05/24 02:14:32;;;;;;;;;;;17.60;63.40;;;;;;5079668;28;19936;-78
2023/05/24 02:16:59;;;;;;;;;;;17.60;63.50;;;;;;5082524;28;19935;-78
2023/05/24 02:19:27;;;;;;;;;;;17.60;63.70;;;;;;5088944;28;19943;-78
2023/05/24 02:21:53;;;;;;;;;;;17.60;63.80;;;;;;5071813;28;19963;-78
2023/05/24 02:24:20;;;;;;;;;;;17.50;63.70;;;;;;5075481;28;20483;-77
2023/05/24 02:26:46;;;;;;;;;;;17.50;63.80;;;;;;5077710;28;19936;-78
2023/05/24 02:29:13;;;;;;;;;;;17.50;63.90;;;;;;5075811;28;19924;-78
2023/05/24 02:31:40;;;;;;;;;;;17.50;64.00;;;;;;5074509;28;19977;-80
2023/05/24 02:34:06;;;;;;;;;;;17.50;64.10;;;;;;5077622;28;19925;-78
2023/05/24 02:36:35;;;;;;;;;;;17.40;64.10;;;;;;5075538;28;19935;-78
2023/05/24 02:39:02;;;;;;;;;;;17.50;64.40;;;;;;5079878;28;20023;-79
2023/05/24 02:41:29;;;;;;;;;;;17.40;65.00;;;;;;5074828;28;20386;-78
2023/05/24 02:43:55;;;;;;;;;;;17.40;64.30;;;;;;5071563;28;20227;-78
2023/05/24 02:46:22;;;;;;;;;;;17.40;64.30;;;;;;5075204;28;19932;-78
2023/05/24 02:48:49;;;;;;;;;;;17.40;64.40;;;;;;5080325;28;19932;-79
2023/05/24 02:51:16;;;;;;;;;;;17.30;64.40;;;;;;5082431;28;19932;-80
2023/05/24 02:53:44;;;;;;;;;;;17.30;64.40;;;;;;5079836;28;19928;-78
2023/05/24 02:56:12;;;;;;;;;;;17.30;64.40;;;;;;5081077;28;19924;-78
2023/05/24 02:58:39;;;;;;;;;;;17.30;64.50;;;;;;5079736;28;20732;-78
2023/05/24 03:01:06;;;;;;;;;;;17.30;64.50;;;;;;5081978;28;20285;-78
2023/05/24 03:03:33;;;;;;;;;;;17.20;64.50;;;;;;5084076;28;20380;-78
2023/05/24 03:05:59;;;;;;;;;;;17.20;64.50;;;;;;5074517;28;20519;-79
2023/05/24 03:08:26;;;;;;;;;;;17.20;64.50;;;;;;5085779;28;20015;-78
2023/05/24 03:10:54;;;;;;;;;;;17.20;64.60;;;;;;5079874;28;19928;-79
2023/05/24 03:13:20;;;;;;;;;;;17.20;64.60;;;;;;5073084;28;19930;-79
2023/05/24 03:15:47;;;;;;;;;;;17.10;64.50;;;;;;5079206;28;19925;-79
2023/05/24 03:18:14;;;;;;;;;;;17.10;64.50;;;;;;5074926;28;20275;-79
2023/05/24 03:20:41;;;;;;;;;;;17.10;64.50;;;;;;5077943;28;19928;-78
2023/05/24 03:23:08;;;;;;;;;;;17.10;64.50;;;;;;5079714;28;19935;-78
2023/05/24 03:25:35;;;;;;;;;;;17.10;64.50;;;;;;5078490;28;19928;-79
2023/05/24 03:28:02;;;;;;;;;;;17.00;64.50;;;;;;5084095;28;20420;-80
2023/05/24 03:30:29;;;;;;;;;;;17.00;64.50;;;;;;5074516;28;19936;-78
2023/05/24 03:32:56;;;;;;;;;;;17.00;64.50;;;;;;5074061;28;19928;-78
2023/05/24 03:35:22;;;;;;;;;;;16.90;64.40;;;;;;5071214;28;19936;-78
2023/05/24 03:37:49;;;;;;;;;;;16.90;64.40;;;;;;5081576;28;19932;-78
2023/05/24 03:40:15;;;;;;;;;;;16.90;64.50;;;;;;5072166;28;19939;-78
2023/05/24 03:42:42;;;;;;;;;;;16.90;64.50;;;;;;5077754;28;19928;-78
2023/05/24 03:45:10;;;;;;;;;;;16.90;64.50;;;;;;5074216;28;20010;-78
2023/05/24 03:47:37;;;;;;;;;;;16.90;65.30;;;;;;5080081;28;19935;-79
2023/05/24 03:50:04;;;;;;;;;;;16.80;64.40;;;;;;5076823;28;19965;-78
2023/05/24 03:52:30;;;;;;;;;;;16.80;64.30;;;;;;5074754;28;20727;-79
2023/05/24 03:54:57;;;;;;;;;;;16.80;64.40;;;;;;5076489;28;19935;-78
2023/05/24 03:57:23;;;;;;;;;;;16.70;64.40;;;;;;5070893;28;20310;-78
2023/05/24 03:59:50;;;;;;;;;;;16.70;64.30;;;;;;5077209;28;19935;-78
2023/05/24 04:02:18;;;;;;;;;;;16.70;64.40;;;;;;5076279;28;19950;-78
2023/05/24 04:04:44;;;;;;;;;;;16.70;64.40;;;;;;5076916;28;19928;-78
2023/05/24 04:07:12;;;;;;;;;;;16.70;64.50;;;;;;5075412;28;19935;-79
2023/05/24 04:09:39;;;;;;;;;;;16.70;64.50;;;;;;5073934;28;19928;-78
2023/05/24 04:12:05;;;;;;;;;;;16.60;64.40;;;;;;5072689;28;19928;-78
2023/05/24 04:14:32;;;;;;;;;;;16.60;64.50;;;;;;5076470;28;19928;-77
2023/05/24 04:17:01;;;;;;;;;;;16.60;64.60;;;;;;5079665;28;20011;-78
2023/05/24 04:19:28;;;;;;;;;;;16.60;64.60;;;;;;5084492;28;19963;-78
2023/05/24 04:21:55;;;;;;;;;;;16.60;64.70;;;;;;5075995;28;19939;-78
2023/05/24 04:24:21;;;;;;;;;;;16.60;64.80;;;;;;5079903;28;19931;-78
2023/05/24 04:26:49;;;;;;;;;;;16.50;64.70;;;;;;5082106;28;19935;-78
2023/05/24 04:29:15;;;;;;;;;;;16.50;64.70;;;;;;5070706;28;20014;-78
2023/05/24 04:31:43;;;;;;;;;;;16.50;64.70;;;;;;5074766;28;19928;-77
2023/05/24 04:34:11;;;;;;;;;;;16.50;64.80;;;;;;5075727;28;19988;-78
2023/05/24 04:36:40;;;;;;;;;;;16.50;64.80;;;;;;5080494;28;19928;-78
2023/05/24 04:39:06;;;;;;;;;;;16.50;64.90;;;;;;5081092;28;19928;-78
2023/05/24 04:41:34;;;;;;;;;;;16.50;64.90;;;;;;5075783;28;19932;-77
2023/05/24 04:44:01;;;;;;;;;;;16.50;64.90;;;;;;5074270;28;20292;-78
2023/05/24 04:46:28;;;;;;;;;;;16.40;64.80;;;;;;5078239;28;20394;-78
2023/05/24 04:48:54;;;;;;;;;;;16.40;64.90;;;;;;5071203;28;20290;-78
2023/05/24 04:51:21;;;;;;;;;;;16.40;64.90;;;;;;5077494;28;20873;-79
2023/05/24 04:53:49;;;;;;;;;;;16.40;65.00;;;;;;5078503;28;19924;-77
2023/05/24 04:56:16;;;;;;;;;;;16.20;62.00;;;;;;5083909;28;19928;-79
2023/05/24 04:58:42;;;;;;;;;;;16.10;63.00;;;;;;5076133;28;19928;-78
2023/05/24 05:01:09;;;;;;;;;;;16.00;63.60;;;;;;5079448;28;19932;-78
2023/05/24 05:03:36;;;;;;;;;;;15.90;64.00;;;;;;5080536;28;19935;-77
2023/05/24 05:06:02;;;;;;;;;;;15.90;64.30;;;;;;5078803;28;19940;-77
2023/05/24 05:08:29;;;;;;;;;;;15.90;64.20;;;;;;5085546;28;19928;-77
2023/05/24 05:10:57;;;;;;;;;;;15.90;64.20;;;;;;5083063;28;19939;-77
2023/05/24 05:13:24;;;;;;;;;;;15.90;64.30;;;;;;5082040;28;19927;-78
2023/05/24 05:15:51;;;;;;;;;;;15.90;64.40;;;;;;5087028;28;19928;-77
2023/05/24 05:18:17;;;;;;;;;;;15.90;64.50;;;;;;5087055;28;19928;-77
2023/05/24 05:20:44;;;;;;;;;;;15.90;64.70;;;;;;5078935;28;19932;-77
2023/05/24 05:23:10;;;;;;;;;;;15.90;64.70;;;;;;5079963;28;19928;-77
2023/05/24 05:25:37;;;;;;;;;;;15.90;64.80;;;;;;5085301;28;19947;-76
2023/05/24 05:28:05;;;;;;;;;;;15.90;64.90;;;;;;5087505;28;19962;-77
2023/05/24 05:30:31;;;;;;;;;;;15.90;65.00;;;;;;5086082;28;19951;-77
2023/05/24 05:32:58;;;;;;;;;;;15.90;65.00;;;;;;5082763;28;20409;-77
2023/05/24 05:35:24;;;;;;;;;;;15.90;65.10;;;;;;5080040;28;19939;-77
2023/05/24 05:37:51;;;;;;;;;;;15.90;65.20;;;;;;5083025;28;19931;-77
2023/05/24 05:40:18;;;;;;;;;;;15.90;65.20;;;;;;5083987;28;20570;-77
2023/05/24 05:42:46;;;;;;;;;;;15.90;65.40;;;;;;5081830;28;19928;-77
2023/05/24 05:45:13;;;;;;;;;;;15.90;65.40;;;;;;5081879;28;20013;-77
2023/05/24 05:47:40;;;;;;;;;;;15.90;65.40;;;;;;5083074;28;19935;-77
2023/05/24 05:50:07;;;;;;;;;;;15.90;65.60;;;;;;5083833;28;20006;-77
2023/05/24 05:52:34;;;;;;;;;;;15.80;65.40;;;;;;5080153;28;19932;-78
2023/05/24 05:55:00;;;;;;;;;;;15.80;65.60;;;;;;5082104;28;19928;-77
2023/05/24 05:57:27;;;;;;;;;;;15.80;65.50;;;;;;5083345;28;19927;-77
2023/05/24 05:59:53;;;;;;;;;;;15.80;65.50;;;;;;5079222;28;19928;-78
2023/05/24 06:02:22;;;;;;;;;;;15.80;65.50;;;;;;5083373;28;19923;-77
2023/05/24 06:04:49;;;;;;;;;;;15.70;65.40;;;;;;5079226;28;20010;-76
2023/05/24 06:07:15;;;;;;;;;;;15.80;65.40;;;;;;5081068;28;19931;-77
2023/05/24 06:09:42;;;;;;;;;;;15.70;65.40;;;;;;5084167;28;19924;-78
2023/05/24 06:12:08;;;;;;;;;;;15.70;65.30;;;;;;5082628;28;19935;-77
2023/05/24 06:14:37;;;;;;;;;;;15.70;65.40;;;;;;5079646;28;19955;-76
2023/05/24 06:17:04;;;;;;;;;;;15.70;65.50;;;;;;5085436;28;19924;-78
2023/05/24 06:19:32;;;;;;;;;;;15.70;65.50;;;;;;5079990;28;19924;-77
2023/05/24 06:21:59;;;;;;;;;;;15.70;65.40;;;;;;5074825;28;19977;-77
2023/05/24 06:24:27;;;;;;;;;;;15.70;65.40;;;;;;5078782;28;19924;-77
2023/05/24 06:26:54;;;;;;;;;;;15.60;65.40;;;;;;5084384;28;19928;-77
2023/05/24 06:29:21;;;;;;;;;;;15.60;65.40;;;;;;5081368;28;19928;-77
2023/05/24 06:31:48;;;;;;;;;;;15.60;65.40;;;;;;5079545;28;20008;-77
2023/05/24 06:34:15;;;;;;;;;;;15.60;65.30;;;;;;5082444;28;19928;-77
2023/05/24 06:36:45;;;;;;;;;;;15.60;65.20;;;;;;5077590;28;20321;-77
2023/05/24 06:39:12;;;;;;;;;;;15.60;65.20;;;;;;5082010;28;19928;-77
2023/05/24 06:41:39;;;;;;;;;;;15.60;65.20;;;;;;5082620;28;19928;-77
2023/05/24 06:44:06;;;;;;;;;;;15.60;65.40;;;;;;5079910;28;19935;-77
2023/05/24 06:46:33;;;;;;;;;;;15.60;65.20;;;;;;5081469;28;20766;-77
2023/05/24 06:48:59;;;;;;;;;;;15.60;65.20;;;;;;5080845;28;20406;-77
2023/05/24 06:51:26;;;;;;;;;;;15.60;65.20;;;;;;5079356;28;20790;-77
2023/05/24 06:53:54;;;;;;;;;;;15.60;65.30;;;;;;5081174;28;20018;-78
2023/05/24 06:56:20;;;;;;;;;;;15.60;65.20;;;;;;5080437;28;19939;-77
2023/05/24 06:58:47;;;;;;;;;;;15.60;65.10;;;;;;5081806;28;19939;-77
2023/05/24 07:01:14;;;;;;;;;;;15.60;65.20;;;;;;5073317;28;20038;-77
2023/05/24 07:03:40;;;;;;;;;;;15.60;65.20;;;;;;5084754;28;19928;-76
2023/05/24 07:06:08;;;;;;;;;;;15.60;65.10;;;;;;5074769;28;19939;-77
2023/05/24 07:08:35;;;;;;;;;;;15.60;65.00;;;;;;5070364;28;19928;-78
2023/05/24 07:11:03;;;;;;;;;;;15.60;65.10;;;;;;5086515;28;19935;-77
2023/05/24 07:13:29;;;;;;;;;;;15.60;65.00;;;;;;5082773;28;19935;-77
2023/05/24 07:15:56;;;;;;;;;;;15.60;65.00;;;;;;5079315;28;19932;-77
2023/05/24 07:18:22;;;;;;;;;;;15.60;65.00;;;;;;5069830;28;20021;-77
2023/05/24 07:20:49;;;;;;;;;;;15.60;64.90;;;;;;5074737;28;19935;-78
2023/05/24 07:23:16;;;;;;;;;;;15.60;64.90;;;;;;5079319;28;19932;-77
2023/05/24 07:25:42;;;;;;;;;;;15.60;64.80;;;;;;5072537;28;20021;-77
2023/05/24 07:28:10;;;;;;;;;;;15.60;64.80;;;;;;5076842;28;19983;-77
2023/05/24 07:30:38;;;;;;;;;;;15.60;65.10;;;;;;5078397;28;20316;-77
2023/05/24 07:33:04;;;;;;;;;;;15.60;64.70;;;;;;5079923;28;19938;-77
2023/05/24 07:35:31;;;;;;;;;;;15.60;64.80;;;;;;5069991;28;19932;-76
2023/05/24 07:37:58;;;;;;;;;;;15.60;64.90;;;;;;5080310;28;20060;-77
2023/05/24 07:40:25;;;;;;;;;;;15.60;64.70;;;;;;5081858;28;19932;-75
2023/05/24 07:42:52;;;;;;;;;;;15.60;64.60;;;;;;5078649;28;20478;-78
2023/05/24 07:45:20;;;;;;;;;;;15.60;64.40;;;;;;5077930;28;21049;-77
2023/05/24 07:47:46;;;;;;;;;;;15.60;64.30;;;;;;5081829;28;19928;-77
2023/05/24 07:50:13;;;;;;;;;;;15.60;64.30;;;;;;5076317;28;19928;-77
2023/05/24 07:52:39;;;;;;;;;;;15.60;64.40;;;;;;5084228;28;19928;-77
2023/05/24 07:55:06;;;;;;;;;;;15.60;64.60;;;;;;5085427;28;20341;-76
2023/05/24 07:57:33;;;;;;;;;;;15.60;64.40;;;;;;5082098;28;19928;-76
2023/05/24 08:00:05;;;;;;;;;;;15.70;64.40;;;;;;5080929;28;19928;-77
2023/05/24 08:02:33;;;;;;;;;;;15.60;64.30;;;;;;5080641;28;20170;-77
2023/05/24 08:05:00;;;;;;;;;;;15.60;64.40;;;;;;5081503;28;20441;-76
2023/05/24 08:07:27;;;;;;;;;;;15.70;64.20;;;;;;5079894;28;19928;-76
2023/05/24 08:09:53;;;;;;;;;;;15.70;64.20;;;;;;5079679;28;20790;-79
2023/05/24 08:12:20;;;;;;;;;;;15.70;64.10;;;;;;5088401;28;20397;-77
2023/05/24 08:14:46;;;;;;;;;;;15.70;64.20;;;;;;5078967;28;19928;-77
2023/05/24 08:17:13;;;;;;;;;;;15.70;64.10;;;;;;5081309;28;19939;-76
2023/05/24 08:19:41;;;;;;;;;;;15.70;64.20;;;;;;5079627;28;19935;-76
2023/05/24 08:22:08;;;;;;;;;;;15.70;64.20;;;;;;5080437;28;19935;-76
2023/05/24 08:24:34;;;;;;;;;;;15.80;64.00;;;;;;5081487;28;21914;-77
2023/05/24 08:27:03;;;;;;;;;;;15.80;63.80;;;;;;5079758;28;20671;-77
2023/05/24 08:29:29;;;;;;;;;;;15.80;63.80;;;;;;5081382;28;19932;-78
2023/05/24 08:31:56;;;;;;;;;;;15.80;63.80;;;;;;5078303;28;20034;-77
2023/05/24 08:34:23;;;;;;;;;;;15.80;63.60;;;;;;5082961;28;19927;-77
2023/05/24 08:36:50;;;;;;;;;;;15.90;63.70;;;;;;5080391;28;19936;-76
2023/05/24 08:39:17;;;;;;;;;;;15.90;63.70;;;;;;5083523;28;19958;-76
2023/05/24 08:41:44;;;;;;;;;;;15.90;63.50;;;;;;5083786;28;20023;-77
2023/05/24 08:44:11;;;;;;;;;;;15.90;64.20;;;;;;5080684;28;20003;-76
2023/05/24 08:46:38;;;;;;;;;;;15.90;63.20;;;;;;5079415;28;19998;-77
2023/05/24 08:49:06;;;;;;;;;;;15.90;62.90;;;;;;5079010;28;19986;-77
2023/05/24 08:51:33;;;;;;;;;;;15.90;62.90;;;;;;5080161;28;19979;-77
2023/05/24 08:54:02;;;;;;;;;;;16.00;62.90;;;;;;5081444;28;19998;-77
2023/05/24 08:56:28;;;;;;;;;;;15.90;62.90;;;;;;5081922;28;19975;-76
2023/05/24 08:58:55;;;;;;;;;;;16.00;62.70;;;;;;5083028;28;20073;-77
2023/05/24 09:01:23;;;;;;;;;;;16.00;62.70;;;;;;5078594;28;20002;-77
2023/05/24 09:03:50;;;;;;;;;;;15.90;62.60;;;;;;5083573;28;19986;-76
2023/05/24 09:06:18;;;;;;;;;;;16.00;62.60;;;;;;5079978;28;20384;-76
2023/05/24 09:08:45;;;;;;;;;;;16.00;62.60;;;;;;5083365;28;20002;-76
2023/05/24 09:11:14;;;;;;;;;;;16.00;62.40;;;;;;5082494;28;19979;-77
2023/05/24 09:13:41;;;;;;;;;;;16.00;62.70;;;;;;5068983;28;19986;-76
2023/05/24 09:16:08;;;;;;;;;;;16.00;62.50;;;;;;5082140;28;20455;-76
2023/05/24 09:18:34;;;;;;;;;;;16.10;62.30;;;;;;5079959;28;19995;-76
2023/05/24 09:21:01;;;;;;;;;;;16.00;62.00;;;;;;5076578;28;20510;-77
2023/05/24 09:23:27;;;;;;;;;;;16.10;61.80;;;;;;5078167;28;19982;-77
2023/05/24 09:25:54;;;;;;;;;;;16.10;62.10;;;;;;5077300;28;20550;-77
2023/05/24 09:28:23;;;;;;;;;;;16.20;62.50;;;;;;5080518;28;20758;-77
2023/05/24 09:31:01;;;;;;;;;;;16.20;62.20;;;;;;5075964;28;19991;-77
2023/05/24 09:33:32;;;;;;;;;;;16.20;62.00;;;;;;5076981;28;20018;-77
2023/05/24 09:35:59;;;;;;;;;;;16.20;61.90;;;;;;5078478;28;20098;-77
2023/05/24 09:38:26;;;;;;;;;;;16.20;61.90;;;;;;5082574;28;20052;-76
2023/05/24 09:41:00;;;;;;;;;;;16.30;61.30;;;;;;5076614;28;20084;-76
2023/05/24 09:43:29;;;;;;;;;;;16.30;61.20;;;;;;5079296;28;19978;-77
2023/05/24 09:45:56;;;;;;;;;;;16.30;60.70;;;;;;5072707;28;20045;-76
2023/05/24 09:48:23;;;;;;;;;;;16.30;60.40;;;;;;5080552;28;20044;-76
2023/05/24 09:50:58;;;;;;;;;;;16.40;59.70;;;;;;5076438;28;20039;-77
2023/05/24 09:53:25;;;;;;;;;;;16.40;59.90;;;;;;5079739;28;20065;-77
2023/05/24 09:55:54;;;;;;;;;;;16.50;59.80;;;;;;5078804;28;20348;-77
2023/05/24 09:58:20;;;;;;;;;;;16.50;60.40;;;;;;5077310;28;19995;-77
2023/05/24 10:00:48;;;;;;;;;;;16.60;61.20;;;;;;5077010;28;19995;-77
2023/05/24 10:03:15;;;;;;;;;;;16.50;60.80;;;;;;5078632;28;19975;-77
2023/05/24 10:05:42;;;;;;;;;;;16.60;60.80;;;;;;5077591;28;20728;-76
2023/05/24 10:08:10;;;;;;;;;;;16.70;59.30;;;;;;5080663;28;19995;-77
2023/05/24 10:10:36;;;;;;;;;;;16.70;58.80;;;;;;5082302;28;19979;-76
2023/05/24 10:13:03;;;;;;;;;;;16.80;58.90;;;;;;5077936;28;19984;-77
2023/05/24 10:15:30;;;;;;;;;;;16.80;58.40;;;;;;5081681;28;20089;-76
2023/05/24 10:17:58;;;;;;;;;;;16.80;58.70;;;;;;5078806;28;20004;-76
2023/05/24 10:20:25;;;;;;;;;;;16.90;59.80;;;;;;5078078;28;20063;-77
2023/05/24 10:22:53;;;;;;;;;;;17.00;59.10;;;;;;5067563;28;19990;-76
2023/05/24 10:25:21;;;;;;;;;;;17.00;58.50;;;;;;5078565;28;20403;-76
2023/05/24 10:27:49;;;;;;;;;;;17.10;58.70;;;;;;5077665;28;19992;-77
2023/05/24 10:30:17;;;;;;;;;;;17.20;58.10;;;;;;5078292;28;19975;-76
2023/05/24 10:32:45;;;;;;;;;;;17.20;57.10;;;;;;5074313;28;20062;-77
2023/05/24 10:35:13;;;;;;;;;;;17.30;56.50;;;;;;5079294;28;19975;-76
2023/05/24 10:37:41;;;;;;;;;;;17.40;56.80;;;;;;5073750;28;20618;-77
2023/05/24 10:40:16;;;;;;;;;;;17.40;55.80;;;;;;5075115;28;20569;-77
2023/05/24 10:42:43;;;;;;;;;;;17.50;55.90;;;;;;5077388;28;20013;-76
2023/05/24 10:45:30;;;;;;;;;;;17.50;55.70;;;;;;5081832;28;20006;-77
2023/05/24 10:47:56;;;;;;;;;;;17.50;55.70;;;;;;5079362;28;20068;-76
2023/05/24 10:50:24;;;;;;;;;;;17.70;55.40;;;;;;5075437;28;19995;-76
2023/05/24 10:52:50;;;;;;;;;;;17.70;56.80;;;;;;5074246;28;19975;-77
2023/05/24 10:55:18;;;;;;;;;;;17.70;56.60;;;;;;5078470;28;19975;-77
2023/05/24 10:57:45;;;;;;;;;;;17.80;56.30;;;;;;5077233;28;19995;-77
2023/05/24 11:00:27;;;;;;;;;;;17.80;56.20;;;;;;5078396;28;19975;-75
2023/05/24 11:03:00;;;;;;;;;;;17.80;56.40;;;;;;5075099;28;21940;-77
2023/05/24 11:05:32;;;;;;;;;;;17.90;56.80;;;;;;5077224;28;20392;-77
2023/05/24 11:07:58;;;;;;;;;;;17.90;57.70;;;;;;5075794;28;19995;-77
2023/05/24 11:10:29;;;;;;;;;;;18.00;57.00;;;;;;5079875;28;19979;-77
2023/05/24 11:12:57;;;;;;;;;;;18.00;55.90;;;;;;5077613;28;19982;-76
2023/05/24 11:15:24;;;;;;;;;;;18.10;56.80;;;;;;5078234;28;20022;-78
2023/05/24 11:18:11;;;;;;;;;;;18.10;56.00;;;;;;5077287;28;20605;-77
2023/05/24 11:20:40;;;;;;;;;;;18.20;55.10;;;;;;5075745;28;19982;-77
2023/05/24 11:23:08;;;;;;;;;;;18.20;55.70;;;;;;5079216;28;19982;-77
2023/05/24 11:25:36;;;;;;;;;;;18.20;55.40;;;;;;5074075;28;20010;-77
2023/05/24 11:28:03;;;;;;;;;;;18.30;55.90;;;;;;5078527;28;20010;-76
2023/05/24 11:30:31;;;;;;;;;;;18.30;55.40;;;;;;5076917;28;20003;-77
2023/05/24 11:32:58;;;;;;;;;;;18.30;54.10;;;;;;5078384;28;20814;-77
2023/05/24 11:35:26;;;;;;;;;;;18.30;55.20;;;;;;5075917;28;19982;-78
2023/05/24 11:37:55;;;;;;;;;;;18.40;56.30;;;;;;5075998;28;20001;-77
2023/05/24 11:40:22;;;;;;;;;;;18.40;55.10;;;;;;5078698;28;20037;-77
2023/05/24 11:42:49;;;;;;;;;;;18.40;55.90;;;;;;5076269;28;20155;-77
2023/05/24 11:45:17;;;;;;;;;;;18.50;55.60;;;;;;5076261;28;19975;-77
2023/05/24 11:47:44;;;;;;;;;;;18.50;54.70;;;;;;5079555;28;19991;-77
2023/05/24 11:50:14;;;;;;;;;;;18.60;54.70;;;;;;5067332;28;19975;-77
2023/05/24 11:52:41;;;;;;;;;;;18.60;53.50;;;;;;5081347;28;20546;-77
2023/05/24 11:55:12;;;;;;;;;;;18.60;53.70;;;;;;5080374;28;19975;-77
2023/05/24 11:57:41;;;;;;;;;;;18.70;53.80;;;;;;5081221;28;19999;-76
2023/05/24 12:00:15;;;;;;;;;;;18.70;54.00;;;;;;5076309;28;19979;-77
2023/05/24 12:02:42;;;;;;;;;;;18.80;53.80;;;;;;5070660;28;19982;-77
2023/05/24 12:05:10;;;;;;;;;;;18.80;54.90;;;;;;5078957;28;19979;-77
2023/05/24 12:07:37;;;;;;;;;;;18.90;54.00;;;;;;5081111;28;20693;-77
2023/05/24 12:10:04;;;;;;;;;;;18.90;53.20;;;;;;5081335;28;19975;-78
2023/05/24 12:12:33;;;;;;;;;;;19.00;53.50;;;;;;5079216;28;20332;-77
2023/05/24 12:14:59;;;;;;;;;;;19.10;54.40;;;;;;5076510;28;19991;-77
2023/05/24 12:17:26;;;;;;;;;;;19.10;53.40;;;;;;5080865;28;20014;-77
2023/05/24 12:19:53;;;;;;;;;;;19.10;53.00;;;;;;5071849;28;19984;-77
2023/05/24 12:22:19;;;;;;;;;;;19.20;54.20;;;;;;5081505;28;20028;-78
2023/05/24 12:24:48;;;;;;;;;;;19.30;53.40;;;;;;5084923;28;19986;-78
2023/05/24 12:27:15;;;;;;;;;;;19.30;52.80;;;;;;5080847;28;20497;-78
2023/05/24 12:29:43;;;;;;;;;;;19.30;53.30;;;;;;5079916;27;19979;-77
2023/05/24 12:32:11;;;;;;;;;;;19.40;52.70;;;;;;5073725;28;19995;-76
2023/05/24 12:34:40;;;;;;;;;;;19.40;52.50;;;;;;5077593;28;19979;-78
2023/05/24 12:37:08;;;;;;;;;;;19.50;51.30;;;;;;5085505;28;19995;-77
2023/05/24 12:39:36;;;;;;;;;;;19.60;51.80;;;;;;5083076;28;19979;-77
2023/05/24 12:42:03;;;;;;;;;;;19.60;52.50;;;;;;5081123;28;19981;-76
2023/05/24 12:44:31;;;;;;;;;;;19.60;52.40;;;;;;5084399;28;19990;-78
2023/05/24 12:47:01;;;;;;;;;;;19.70;52.20;;;;;;5081177;28;20003;-72
2023/05/24 12:49:27;;;;;;;;;;;19.70;51.40;;;;;;5091746;28;19978;-72
2023/05/24 12:51:55;;;;;;;;;;;19.70;51.40;;;;;;5081031;28;19976;-72
2023/05/24 12:54:22;;;;;;;;;;;19.70;50.90;;;;;;5093097;28;20032;-73
2023/05/24 12:56:49;;;;;;;;;;;19.80;50.90;;;;;;5091354;28;19989;-72
2023/05/24 12:59:15;;;;;;;;;;;19.80;51.10;;;;;;5086750;28;19975;-71
2023/05/24 13:01:45;;;;;;;;;;;19.90;51.60;;;;;;5079137;28;20002;-72
2023/05/24 13:04:13;;;;;;;;;;;19.90;50.90;;;;;;5091891;28;20075;-72
2023/05/24 13:06:40;;;;;;;;;;;19.90;49.70;;;;;;5088292;28;19991;-72
2023/05/24 13:09:06;;;;;;;;;;;20.00;50.80;;;;;;5081539;28;19982;-72
2023/05/24 13:11:33;;;;;;;;;;;20.00;52.40;;;;;;5082815;28;20079;-72
2023/05/24 13:14:00;;;;;;;;;;;20.10;51.80;;;;;;5080806;28;19979;-72
2023/05/24 13:16:26;;;;;;;;;;;20.10;51.60;;;;;;5083468;28;20480;-71
2023/05/24 13:18:53;;;;;;;;;;;20.20;52.30;;;;;;5086187;28;20002;-72
2023/05/24 13:21:21;;;;;;;;;;;20.20;51.60;;;;;;5083033;28;20580;-72
2023/05/24 13:23:48;;;;;;;;;;;20.20;52.40;;;;;;5082593;28;20089;-71
2023/05/24 13:26:14;;;;;;;;;;;20.30;51.90;;;;;;5088647;28;19994;-72
2023/05/24 13:28:42;;;;;;;;;;;20.30;52.20;;;;;;5080768;28;20373;-73
2023/05/24 13:31:08;;;;;;;;;;;20.30;52.70;;;;;;5088477;28;20045;-72
2023/05/24 13:33:35;;;;;;;;;;;20.40;51.90;;;;;;5080388;28;19982;-72
2023/05/24 13:36:01;;;;;;;;;;;20.40;52.40;;;;;;5085583;28;19986;-72
2023/05/24 13:38:29;;;;;;;;;;;20.40;51.90;;;;;;5082766;28;20077;-72
2023/05/24 13:40:56;;;;;;;;;;;20.40;52.70;;;;;;5082451;28;19982;-72
2023/05/24 13:43:23;;;;;;;;;;;20.50;52.00;;;;;;5084231;28;20048;-72
2023/05/24 13:45:50;;;;;;;;;;;20.50;50.30;;;;;;5089034;28;20003;-73
2023/05/24 13:48:16;;;;;;;;;;;20.50;51.60;;;;;;5093848;28;19994;-78
2023/05/24 13:50:45;;;;;;;;;;;20.60;51.90;;;;;;5083142;28;21833;-78
2023/05/24 13:53:11;;;;;;;;;;;20.70;52.20;;;;;;5092224;28;20475;-78
2023/05/24 13:55:39;;;;;;;;;;;20.70;51.70;;;;;;5081264;28;19984;-78
2023/05/24 13:58:06;;;;;;;;;;;20.70;51.50;;;;;;5080340;28;19991;-77
2023/05/24 14:00:34;;;;;;;;;;;20.80;50.70;;;;;;5082200;28;20005;-78
2023/05/24 14:03:01;;;;;;;;;;;20.80;49.30;;;;;;5075655;28;19975;-77
2023/05/24 14:05:29;;;;;;;;;;;20.90;50.40;;;;;;5082847;28;19983;-77
2023/05/24 14:07:56;;;;;;;;;;;21.00;49.50;;;;;;5084558;28;20115;-77
2023/05/24 14:10:22;;;;;;;;;;;21.00;51.40;;;;;;5074878;28;19979;-78
2023/05/24 14:12:51;;;;;;;;;;;21.00;51.50;;;;;;5075794;28;19983;-77
2023/05/24 14:15:17;;;;;;;;;;;21.10;51.10;;;;;;5080857;28;19994;-77
2023/05/24 14:17:44;;;;;;;;;;;21.10;50.60;;;;;;5081365;28;19995;-77